Time;durP1;ratioP1;P1;durP2;ratioP2;P2;SDS_P1;SDS_P2;PMS_P1;PMS_P2;Temp;Humidity;BMP_temperature;BMP_pressure;BME280_temperature;BME280_humidity;BME280_pressure;Samples;Min_cycle;Max_cycle;Signal;HPM_P1;HPM_P2
2023/12/24 00:00:37;;;;;;;5.85;2.03;;;;;;;;;;5068966;28;41709;-76
2023/12/24 00:03:05;;;;;;;5.68;1.83;;;;;;;;;;5068239;28;42128;-76
2023/12/24 00:05:33;;;;;;;6.32;1.92;;;;;;;;;;5062787;28;42424;-76
2023/12/24 00:08:01;;;;;;;4.47;1.67;;;;;;;;;;5062658;28;42650;-77
2023/12/24 00:10:29;;;;;;;5.93;1.65;;;;;;;;;;5056449;28;41954;-77
2023/12/24 00:12:58;;;;;;;5.47;1.98;;;;;;;;;;5068045;28;42183;-77
2023/12/24 00:15:26;;;;;;;4.70;1.83;;;;;;;;;;5063483;28;42550;-77
2023/12/24 00:17:54;;;;;;;5.53;1.85;;;;;;;;;;5060962;28;42146;-77
2023/12/24 00:20:23;;;;;;;3.70;1.90;;;;;;;;;;5055958;28;41370;-77
2023/12/24 00:23:02;;;;;;;4.18;1.60;;;;;;;;;;5057108;28;41594;-77
2023/12/24 00:25:30;;;;;;;8.13;2.17;;;;;;;;;;5053359;28;41757;-77
2023/12/24 00:28:00;;;;;;;5.07;1.58;;;;;;;;;;5066376;28;42083;-77
2023/12/24 00:30:28;;;;;;;5.80;1.73;;;;;;;;;;5065001;28;39401;-77
2023/12/24 00:32:57;;;;;;;3.17;1.30;;;;;;;;;;5037649;28;41067;-77
2023/12/24 00:35:26;;;;;;;4.07;1.25;;;;;;;;;;5045415;28;41103;-77
2023/12/24 00:37:56;;;;;;;7.18;1.58;;;;;;;;;;5059600;28;42063;-77
2023/12/24 00:40:23;;;;;;;3.45;1.00;;;;;;;;;;5030646;28;40347;-77
2023/12/24 00:42:51;;;;;;;5.10;1.30;;;;;;;;;;5059136;28;43675;-77
2023/12/24 00:45:21;;;;;;;3.60;1.15;;;;;;;;;;5047644;28;41863;-77
2023/12/24 00:47:49;;;;;;;3.50;1.38;;;;;;;;;;5065546;28;41794;-75
2023/12/24 00:50:17;;;;;;;3.05;1.10;;;;;;;;;;5054367;28;41428;-75
2023/12/24 00:52:46;;;;;;;5.63;1.40;;;;;;;;;;5064215;28;41516;-75
2023/12/24 00:55:16;;;;;;;4.45;1.15;;;;;;;;;;5047274;28;40877;-75
2023/12/24 00:57:44;;;;;;;4.90;1.13;;;;;;;;;;5054173;28;40946;-75
2023/12/24 01:00:14;;;;;;;4.60;1.20;;;;;;;;;;5066580;28;41790;-75
2023/12/24 01:02:43;;;;;;;6.57;1.23;;;;;;;;;;5047128;28;41010;-75
2023/12/24 01:05:11;;;;;;;4.70;1.17;;;;;;;;;;5035527;28;40029;-75
2023/12/24 01:07:40;;;;;;;2.60;1.05;;;;;;;;;;5067865;28;41669;-75
2023/12/24 01:10:08;;;;;;;2.50;1.00;;;;;;;;;;5051755;28;41879;-75
2023/12/24 01:12:37;;;;;;;3.97;0.93;;;;;;;;;;5034617;28;40088;-75
2023/12/24 01:15:05;;;;;;;6.72;1.60;;;;;;;;;;5062048;28;43142;-75
2023/12/24 01:17:33;;;;;;;3.13;0.88;;;;;;;;;;5041693;28;39972;-75
2023/12/24 01:20:04;;;;;;;4.03;1.02;;;;;;;;;;5064670;28;41478;-75
2023/12/24 01:22:32;;;;;;;5.43;1.30;;;;;;;;;;5045702;28;41207;-75
2023/12/24 01:25:00;;;;;;;3.25;1.23;;;;;;;;;;5045260;28;40877;-75
2023/12/24 01:27:28;;;;;;;1.83;0.80;;;;;;;;;;5052377;28;40916;-75
2023/12/24 01:29:56;;;;;;;3.00;0.98;;;;;;;;;;5055015;28;42804;-75
2023/12/24 01:32:24;;;;;;;4.63;0.82;;;;;;;;;;5063917;28;41372;-75
2023/12/24 01:34:52;;;;;;;6.88;1.17;;;;;;;;;;5046125;28;41240;-75
2023/12/24 01:37:22;;;;;;;2.67;0.63;;;;;;;;;;5047625;28;40061;-75
2023/12/24 01:39:50;;;;;;;4.47;1.40;;;;;;;;;;5065604;28;42180;-75
2023/12/24 01:42:17;;;;;;;3.55;1.13;;;;;;;;;;5060355;28;42185;-75
2023/12/24 01:44:45;;;;;;;5.22;1.13;;;;;;;;;;5052701;28;40673;-75
2023/12/24 01:47:14;;;;;;;3.28;0.93;;;;;;;;;;5057331;28;41887;-75
2023/12/24 01:49:42;;;;;;;2.20;1.05;;;;;;;;;;5048923;28;40727;-75
2023/12/24 01:52:10;;;;;;;2.22;0.77;;;;;;;;;;5066355;28;42857;-75
2023/12/24 01:54:41;;;;;;;3.30;1.02;;;;;;;;;;5052924;28;41949;-76
2023/12/24 01:57:09;;;;;;;2.10;1.00;;;;;;;;;;5038081;28;41069;-74
2023/12/24 01:59:37;;;;;;;3.40;0.80;;;;;;;;;;5048330;28;41020;-75
2023/12/24 02:02:05;;;;;;;3.25;1.00;;;;;;;;;;5040305;28;40322;-75
2023/12/24 02:04:34;;;;;;;3.15;0.80;;;;;;;;;;5057004;28;40093;-75
2023/12/24 02:07:02;;;;;;;3.85;1.00;;;;;;;;;;5046698;28;41399;-76
2023/12/24 02:09:30;;;;;;;5.15;1.08;;;;;;;;;;5045696;28;41572;-75
2023/12/24 02:11:59;;;;;;;3.30;0.98;;;;;;;;;;5065874;28;40752;-75
2023/12/24 02:14:27;;;;;;;2.85;0.80;;;;;;;;;;5061914;28;42476;-75
2023/12/24 02:16:56;;;;;;;1.40;0.88;;;;;;;;;;5038708;28;40130;-75
2023/12/24 02:19:24;;;;;;;1.83;0.80;;;;;;;;;;5065966;28;42123;-75
2023/12/24 02:21:53;;;;;;;2.65;0.98;;;;;;;;;;5055568;28;40905;-75
2023/12/24 02:24:21;;;;;;;2.08;0.65;;;;;;;;;;5038271;28;40667;-75
2023/12/24 02:26:51;;;;;;;3.90;1.27;;;;;;;;;;5064223;28;41789;-75
2023/12/24 02:29:20;;;;;;;3.08;1.15;;;;;;;;;;5070482;28;44082;-75
2023/12/24 02:31:48;;;;;;;4.10;1.52;;;;;;;;;;5056861;28;41236;-75
2023/12/24 02:34:17;;;;;;;3.17;0.95;;;;;;;;;;5067010;28;41608;-75
2023/12/24 02:36:46;;;;;;;2.50;0.85;;;;;;;;;;5032487;28;41807;-75
2023/12/24 02:39:15;;;;;;;3.28;0.98;;;;;;;;;;5048425;28;40794;-75
2023/12/24 02:41:44;;;;;;;3.45;1.10;;;;;;;;;;5059970;28;42089;-75
2023/12/24 02:44:12;;;;;;;3.58;1.50;;;;;;;;;;5064611;28;42240;-75
2023/12/24 02:46:40;;;;;;;2.35;0.85;;;;;;;;;;5049327;28;41214;-75
2023/12/24 02:49:08;;;;;;;2.75;1.17;;;;;;;;;;5052583;28;42092;-75
2023/12/24 02:51:36;;;;;;;3.83;1.52;;;;;;;;;;5055721;28;40508;-75
2023/12/24 02:54:04;;;;;;;3.03;1.42;;;;;;;;;;5077043;28;41478;-75
2023/12/24 02:56:36;;;;;;;3.03;1.50;;;;;;;;;;5058640;28;42618;-75
2023/12/24 02:59:04;;;;;;;4.57;1.30;;;;;;;;;;5062675;28;42315;-75
2023/12/24 03:01:32;;;;;;;1.67;1.00;;;;;;;;;;5045134;28;40557;-75
2023/12/24 03:04:01;;;;;;;2.53;1.30;;;;;;;;;;5036750;28;40135;-75
2023/12/24 03:06:29;;;;;;;4.90;1.65;;;;;;;;;;5069441;28;42707;-75
2023/12/24 03:08:57;;;;;;;3.67;1.58;;;;;;;;;;5083597;28;41959;-75
2023/12/24 03:11:24;;;;;;;5.97;1.88;;;;;;;;;;5074407;28;41375;-75
2023/12/24 03:13:54;;;;;;;6.18;2.28;;;;;;;;;;5050156;28;40448;-75
2023/12/24 03:16:22;;;;;;;4.78;2.00;;;;;;;;;;5039366;28;42072;-75
2023/12/24 03:18:50;;;;;;;2.90;1.88;;;;;;;;;;5048598;28;40441;-75
2023/12/24 03:21:18;;;;;;;3.08;1.00;;;;;;;;;;5049273;28;40254;-75
2023/12/24 03:23:46;;;;;;;1.90;1.17;;;;;;;;;;5068478;28;40822;-75
2023/12/24 03:26:20;;;;;;;3.80;1.40;;;;;;;;;;5042644;28;39969;-75
2023/12/24 03:28:49;;;;;;;2.40;1.17;;;;;;;;;;5057479;28;41356;-75
2023/12/24 03:31:18;;;;;;;3.88;2.05;;;;;;;;;;5073173;28;41644;-75
2023/12/24 03:33:46;;;;;;;2.47;1.08;;;;;;;;;;5057681;28;39930;-75
2023/12/24 03:36:14;;;;;;;2.08;1.33;;;;;;;;;;5053920;28;41420;-75
2023/12/24 03:38:42;;;;;;;1.90;1.10;;;;;;;;;;5048192;28;40739;-75
2023/12/24 03:41:10;;;;;;;2.55;1.17;;;;;;;;;;5062440;28;41679;-75
2023/12/24 03:43:38;;;;;;;3.33;1.38;;;;;;;;;;5065104;28;33279;-75
2023/12/24 03:46:06;;;;;;;1.83;1.20;;;;;;;;;;5056810;28;40734;-77
2023/12/24 03:48:36;;;;;;;2.70;1.23;;;;;;;;;;5067547;28;42727;-78
2023/12/24 03:51:05;;;;;;;3.03;1.50;;;;;;;;;;5063583;28;41952;-78
2023/12/24 03:53:32;;;;;;;2.03;0.98;;;;;;;;;;5062447;28;42662;-77
2023/12/24 03:56:00;;;;;;;2.50;0.95;;;;;;;;;;5043603;28;42341;-77
2023/12/24 03:58:28;;;;;;;2.00;1.08;;;;;;;;;;5059654;28;42022;-77
2023/12/24 04:00:56;;;;;;;1.65;0.80;;;;;;;;;;5047202;28;40054;-78
2023/12/24 04:03:24;;;;;;;2.42;1.02;;;;;;;;;;5044288;28;40425;-78
2023/12/24 04:05:54;;;;;;;2.00;1.30;;;;;;;;;;5066846;28;41694;-78
2023/12/24 04:08:22;;;;;;;1.73;0.90;;;;;;;;;;5065736;28;41930;-78
2023/12/24 04:10:50;;;;;;;2.10;0.90;;;;;;;;;;5064656;28;42096;-78
2023/12/24 04:13:18;;;;;;;3.13;1.00;;;;;;;;;;5049832;28;40359;-78
2023/12/24 04:15:46;;;;;;;2.10;1.00;;;;;;;;;;5062315;28;42662;-78
2023/12/24 04:18:14;;;;;;;1.73;0.80;;;;;;;;;;5045817;28;39553;-77
2023/12/24 04:20:42;;;;;;;1.33;0.77;;;;;;;;;;5044399;28;40232;-78
2023/12/24 04:23:11;;;;;;;2.42;0.90;;;;;;;;;;5053149;28;41773;-76
2023/12/24 04:25:40;;;;;;;1.85;0.95;;;;;;;;;;5069504;28;42398;-76
2023/12/24 04:28:08;;;;;;;1.58;0.90;;;;;;;;;;5056244;28;42622;-76
2023/12/24 04:30:36;;;;;;;1.52;0.88;;;;;;;;;;5032671;28;39887;-77
2023/12/24 04:33:04;;;;;;;3.40;0.90;;;;;;;;;;5050370;28;42263;-77
2023/12/24 04:35:33;;;;;;;1.73;0.90;;;;;;;;;;5058001;28;43140;-76
2023/12/24 04:38:01;;;;;;;2.15;0.80;;;;;;;;;;5047304;28;39928;-76
2023/12/24 04:40:30;;;;;;;1.02;0.80;;;;;;;;;;5040716;28;42003;-76
2023/12/24 04:42:58;;;;;;;0.68;0.50;;;;;;;;;;5038377;28;41274;-76
2023/12/24 04:45:26;;;;;;;2.30;0.88;;;;;;;;;;5045343;28;39533;-76
2023/12/24 04:47:58;;;;;;;1.77;0.50;;;;;;;;;;5055127;28;41426;-76
2023/12/24 04:50:27;;;;;;;0.82;0.55;;;;;;;;;;5048175;28;40049;-76
2023/12/24 04:52:55;;;;;;;2.28;0.68;;;;;;;;;;5052675;28;40646;-76
2023/12/24 04:55:23;;;;;;;1.50;0.50;;;;;;;;;;5067290;28;42608;-76
2023/12/24 04:57:52;;;;;;;0.85;0.43;;;;;;;;;;5066864;28;41357;-76
2023/12/24 05:00:20;;;;;;;1.13;0.50;;;;;;;;;;5079500;28;42655;-76
2023/12/24 05:02:48;;;;;;;0.90;0.50;;;;;;;;;;5062519;28;41753;-76
2023/12/24 05:05:17;;;;;;;0.65;0.40;;;;;;;;;;5036646;28;39653;-76
2023/12/24 05:07:45;;;;;;;0.40;0.30;;;;;;;;;;5046144;28;40919;-76
2023/12/24 05:10:13;;;;;;;0.50;0.35;;;;;;;;;;5058309;28;42317;-76
2023/12/24 05:12:41;;;;;;;1.30;0.60;;;;;;;;;;5065948;28;41896;-76
2023/12/24 05:15:11;;;;;;;0.70;0.50;;;;;;;;;;5048767;28;41453;-76
2023/12/24 05:17:39;;;;;;;0.55;0.35;;;;;;;;;;5065744;28;42266;-76
2023/12/24 05:20:08;;;;;;;0.38;0.38;;;;;;;;;;5060923;28;41226;-76
2023/12/24 05:22:35;;;;;;;1.08;0.40;;;;;;;;;;5047564;28;40420;-76
2023/12/24 05:25:04;;;;;;;0.40;0.40;;;;;;;;;;5041961;28;41077;-76
2023/12/24 05:27:31;;;;;;;0.50;0.32;;;;;;;;;;5061543;28;41717;-77
2023/12/24 05:29:59;;;;;;;0.30;0.30;;;;;;;;;;5060956;28;42907;-76
2023/12/24 05:32:29;;;;;;;0.55;0.30;;;;;;;;;;5064352;28;41845;-76
2023/12/24 05:34:57;;;;;;;0.47;0.47;;;;;;;;;;5050932;28;41910;-76
2023/12/24 05:37:25;;;;;;;1.17;0.30;;;;;;;;;;5067058;28;42223;-76
2023/12/24 05:39:53;;;;;;;0.85;0.40;;;;;;;;;;5059686;28;41615;-76
2023/12/24 05:42:21;;;;;;;0.40;0.30;;;;;;;;;;5066483;28;41314;-76
2023/12/24 05:44:49;;;;;;;0.60;0.32;;;;;;;;;;5075440;28;41379;-76
2023/12/24 05:47:16;;;;;;;0.30;0.30;;;;;;;;;;5051307;28;42714;-76
2023/12/24 05:49:46;;;;;;;0.80;0.30;;;;;;;;;;5058642;28;42770;-76
2023/12/24 05:52:14;;;;;;;0.47;0.30;;;;;;;;;;5065856;28;41188;-76
2023/12/24 05:54:42;;;;;;;0.70;0.30;;;;;;;;;;5067158;28;43183;-76
2023/12/24 05:57:10;;;;;;;0.70;0.20;;;;;;;;;;5054862;28;40919;-76
2023/12/24 05:59:38;;;;;;;0.50;0.35;;;;;;;;;;5063730;28;43233;-77
2023/12/24 06:02:06;;;;;;;0.60;0.20;;;;;;;;;;5058232;28;40676;-77
2023/12/24 06:04:34;;;;;;;0.50;0.30;;;;;;;;;;5061703;28;41359;-76
2023/12/24 06:07:04;;;;;;;0.28;0.28;;;;;;;;;;5058233;28;42725;-76
2023/12/24 06:09:32;;;;;;;0.20;0.20;;;;;;;;;;5061729;28;41983;-76
2023/12/24 06:12:00;;;;;;;0.28;0.28;;;;;;;;;;5064657;28;41167;-76
2023/12/24 06:14:28;;;;;;;0.20;0.20;;;;;;;;;;5064700;28;41773;-76
2023/12/24 06:16:56;;;;;;;0.30;0.30;;;;;;;;;;5059680;28;41038;-76
2023/12/24 06:19:24;;;;;;;0.40;0.40;;;;;;;;;;5061596;28;41751;-76
2023/12/24 06:21:52;;;;;;;0.20;0.20;;;;;;;;;;5063469;28;42023;-76
2023/12/24 06:24:21;;;;;;;1.15;0.40;;;;;;;;;;5060686;28;41319;-76
2023/12/24 06:26:49;;;;;;;0.55;0.38;;;;;;;;;;5061127;28;40997;-76
2023/12/24 06:29:17;;;;;;;0.60;0.30;;;;;;;;;;5057513;28;42024;-76
2023/12/24 06:31:45;;;;;;;0.68;0.30;;;;;;;;;;5060273;28;42233;-75
2023/12/24 06:34:13;;;;;;;0.20;0.20;;;;;;;;;;5062994;28;41621;-75
2023/12/24 06:36:41;;;;;;;1.15;0.30;;;;;;;;;;5059601;28;43313;-75
2023/12/24 06:39:09;;;;;;;0.63;0.28;;;;;;;;;;5056962;28;41800;-76
2023/12/24 06:41:38;;;;;;;0.63;0.35;;;;;;;;;;5065418;28;43148;-75
2023/12/24 06:44:08;;;;;;;0.30;0.20;;;;;;;;;;5070366;28;40947;-75
2023/12/24 06:46:36;;;;;;;0.20;0.20;;;;;;;;;;5074358;28;42394;-76
2023/12/24 06:49:04;;;;;;;0.40;0.20;;;;;;;;;;5065097;28;41673;-76
2023/12/24 06:51:32;;;;;;;0.57;0.30;;;;;;;;;;5054897;28;41158;-76
2023/12/24 06:54:00;;;;;;;0.38;0.22;;;;;;;;;;5058557;28;41733;-76
2023/12/24 06:56:28;;;;;;;1.10;0.40;;;;;;;;;;5045799;28;41879;-75
2023/12/24 06:58:57;;;;;;;0.30;0.20;;;;;;;;;;5055496;28;42295;-75
2023/12/24 07:01:25;;;;;;;0.47;0.22;;;;;;;;;;5064163;28;42049;-76
2023/12/24 07:03:53;;;;;;;0.82;0.32;;;;;;;;;;5054626;28;41361;-75
2023/12/24 07:06:21;;;;;;;1.00;0.40;;;;;;;;;;5055958;28;42244;-76
2023/12/24 07:08:49;;;;;;;0.93;0.40;;;;;;;;;;5065008;28;41703;-75
2023/12/24 07:11:17;;;;;;;1.08;0.30;;;;;;;;;;5049704;28;41104;-75
2023/12/24 07:13:45;;;;;;;0.55;0.30;;;;;;;;;;5063870;28;41368;-75
2023/12/24 07:16:14;;;;;;;0.30;0.20;;;;;;;;;;5060161;28;42815;-76
2023/12/24 07:18:42;;;;;;;0.70;0.20;;;;;;;;;;5071440;28;42305;-75
2023/12/24 07:21:10;;;;;;;0.38;0.20;;;;;;;;;;5070336;28;42774;-75
2023/12/24 07:23:38;;;;;;;0.30;0.30;;;;;;;;;;5074783;28;41473;-75
2023/12/24 07:26:06;;;;;;;0.70;0.30;;;;;;;;;;5084063;28;41551;-75
2023/12/24 07:28:34;;;;;;;0.43;0.30;;;;;;;;;;5066181;28;41880;-76
2023/12/24 07:31:02;;;;;;;0.40;0.30;;;;;;;;;;5059680;28;41279;-76
2023/12/24 07:33:32;;;;;;;1.05;0.30;;;;;;;;;;5062724;28;41221;-76
2023/12/24 07:36:00;;;;;;;0.68;0.30;;;;;;;;;;5046552;28;41602;-76
2023/12/24 07:38:29;;;;;;;0.70;0.32;;;;;;;;;;5063129;28;41108;-75
2023/12/24 07:40:57;;;;;;;1.92;0.40;;;;;;;;;;5058965;28;42661;-75
2023/12/24 07:43:27;;;;;;;0.50;0.20;;;;;;;;;;5061137;28;42951;-76
2023/12/24 07:45:55;;;;;;;1.05;0.28;;;;;;;;;;5065372;28;41885;-75
2023/12/24 07:48:24;;;;;;;0.93;0.30;;;;;;;;;;5063741;28;41991;-75
2023/12/24 07:50:53;;;;;;;0.60;0.22;;;;;;;;;;5067369;28;41149;-75
2023/12/24 07:53:21;;;;;;;2.15;0.30;;;;;;;;;;5066804;28;41212;-75
2023/12/24 07:55:50;;;;;;;0.60;0.20;;;;;;;;;;5057732;28;41705;-75
2023/12/24 07:58:17;;;;;;;0.32;0.30;;;;;;;;;;5062781;28;41211;-76
2023/12/24 08:00:45;;;;;;;2.10;0.30;;;;;;;;;;5065447;28;41605;-75
2023/12/24 08:03:13;;;;;;;0.65;0.30;;;;;;;;;;5066948;28;42819;-75
2023/12/24 08:05:41;;;;;;;0.38;0.20;;;;;;;;;;5062994;28;41647;-75
2023/12/24 08:08:11;;;;;;;0.57;0.30;;;;;;;;;;5058144;28;43084;-76
2023/12/24 08:10:39;;;;;;;1.02;0.40;;;;;;;;;;5062429;28;41427;-75
2023/12/24 08:13:07;;;;;;;1.25;0.30;;;;;;;;;;5062917;28;41142;-75
2023/12/24 08:15:41;;;;;;;0.52;0.28;;;;;;;;;;5063051;28;41836;-75
2023/12/24 08:18:09;;;;;;;0.80;0.20;;;;;;;;;;5067417;28;41602;-75
2023/12/24 08:20:37;;;;;;;0.40;0.32;;;;;;;;;;5062266;28;42314;-75
2023/12/24 08:23:07;;;;;;;1.17;0.40;;;;;;;;;;5058977;28;42370;-76
2023/12/24 08:25:36;;;;;;;1.33;0.38;;;;;;;;;;5063156;28;41224;-72
2023/12/24 08:28:06;;;;;;;0.40;0.25;;;;;;;;;;5063930;28;41859;-72
2023/12/24 08:30:34;;;;;;;2.83;0.47;;;;;;;;;;5065585;28;41033;-73
2023/12/24 08:33:02;;;;;;;8.57;0.35;;;;;;;;;;5053222;28;41196;-72
2023/12/24 08:35:30;;;;;;;0.90;0.38;;;;;;;;;;5056236;28;42185;-73
2023/12/24 08:37:58;;;;;;;3.53;0.50;;;;;;;;;;5063451;28;41264;-71
2023/12/24 08:40:28;;;;;;;1.85;0.38;;;;;;;;;;5067101;28;41449;-74
2023/12/24 08:42:57;;;;;;;2.50;0.60;;;;;;;;;;5060008;28;43164;-71
2023/12/24 08:45:25;;;;;;;1.75;0.30;;;;;;;;;;5064127;28;41379;-71
2023/12/24 08:47:53;;;;;;;2.78;0.50;;;;;;;;;;5065555;28;42442;-72
2023/12/24 08:50:22;;;;;;;2.35;0.35;;;;;;;;;;5065558;28;41762;-72
2023/12/24 08:52:49;;;;;;;2.05;0.50;;;;;;;;;;5060486;28;41814;-72
2023/12/24 08:55:18;;;;;;;1.35;0.50;;;;;;;;;;5061469;28;41692;-73
2023/12/24 08:57:46;;;;;;;0.60;0.30;;;;;;;;;;5060644;28;41990;-72
2023/12/24 09:00:16;;;;;;;1.15;0.40;;;;;;;;;;5055894;28;42346;-71
2023/12/24 09:02:44;;;;;;;1.52;0.50;;;;;;;;;;5063805;28;42075;-72
2023/12/24 09:05:11;;;;;;;0.40;0.30;;;;;;;;;;5059680;28;41060;-72
2023/12/24 09:07:39;;;;;;;1.17;0.40;;;;;;;;;;5066764;28;41626;-72
2023/12/24 09:10:07;;;;;;;1.60;0.30;;;;;;;;;;5062237;28;42515;-71
2023/12/24 09:12:35;;;;;;;1.90;0.40;;;;;;;;;;5066769;28;41727;-72
2023/12/24 09:15:03;;;;;;;1.98;0.40;;;;;;;;;;5058665;28;42243;-73
2023/12/24 09:17:32;;;;;;;5.32;0.40;;;;;;;;;;5061142;28;42370;-72
2023/12/24 09:20:00;;;;;;;0.85;0.38;;;;;;;;;;5054345;28;42101;-72
2023/12/24 09:22:33;;;;;;;0.30;0.20;;;;;;;;;;5059014;28;41889;-71
2023/12/24 09:25:01;;;;;;;2.40;0.30;;;;;;;;;;5044045;28;40911;-72
2023/12/24 09:27:28;;;;;;;1.27;0.40;;;;;;;;;;5061253;28;42373;-72
2023/12/24 09:29:56;;;;;;;3.03;0.75;;;;;;;;;;5066712;28;42102;-73
2023/12/24 09:32:24;;;;;;;0.50;0.30;;;;;;;;;;5066198;28;42258;-72
2023/12/24 09:34:53;;;;;;;0.75;0.22;;;;;;;;;;5062087;28;42084;-72
2023/12/24 09:37:21;;;;;;;2.92;0.30;;;;;;;;;;5057085;28;40977;-75
2023/12/24 09:39:49;;;;;;;3.90;0.40;;;;;;;;;;5054853;28;41561;-73
2023/12/24 09:42:17;;;;;;;1.70;0.65;;;;;;;;;;5062124;28;42307;-76
2023/12/24 09:44:45;;;;;;;1.25;0.28;;;;;;;;;;5061173;28;42373;-73
2023/12/24 09:47:13;;;;;;;2.15;0.30;;;;;;;;;;5057238;28;41975;-73
2023/12/24 09:49:41;;;;;;;1.42;0.30;;;;;;;;;;5058789;28;41578;-74
2023/12/24 09:52:11;;;;;;;1.30;0.20;;;;;;;;;;5068810;28;41337;-75
2023/12/24 09:54:39;;;;;;;0.75;0.30;;;;;;;;;;5068993;28;42128;-74
2023/12/24 09:57:07;;;;;;;0.90;0.30;;;;;;;;;;5063016;28;41652;-73
2023/12/24 09:59:35;;;;;;;3.13;0.30;;;;;;;;;;5073407;28;41687;-74
2023/12/24 10:02:03;;;;;;;4.57;0.40;;;;;;;;;;5066543;28;42270;-74
2023/12/24 10:04:31;;;;;;;2.78;0.30;;;;;;;;;;5060226;28;41172;-74
2023/12/24 10:06:59;;;;;;;3.10;0.47;;;;;;;;;;5065626;28;41743;-80
2023/12/24 10:09:42;;;;;;;1.20;0.32;;;;;;;;;;5051851;28;41575;-73
2023/12/24 10:12:12;;;;;;;2.60;0.40;;;;;;;;;;5062354;28;41173;-72
2023/12/24 10:14:40;;;;;;;3.55;0.30;;;;;;;;;;5063670;28;41270;-73
2023/12/24 10:17:08;;;;;;;4.53;0.38;;;;;;;;;;5056396;28;42340;-72
2023/12/24 10:19:36;;;;;;;3.42;0.32;;;;;;;;;;5051305;28;41410;-72
2023/12/24 10:22:05;;;;;;;0.85;0.30;;;;;;;;;;5057613;28;42630;-71
2023/12/24 10:24:34;;;;;;;1.55;0.40;;;;;;;;;;5052277;28;41186;-70
2023/12/24 10:27:02;;;;;;;3.60;0.47;;;;;;;;;;5049476;28;42332;-71
2023/12/24 10:29:31;;;;;;;6.45;0.70;;;;;;;;;;5060538;28;42049;-72
2023/12/24 10:31:59;;;;;;;3.13;0.68;;;;;;;;;;5063673;28;42263;-76
2023/12/24 10:34:27;;;;;;;2.50;0.52;;;;;;;;;;5065319;28;42396;-72
2023/12/24 10:36:56;;;;;;;2.33;0.65;;;;;;;;;;5059725;28;43171;-74
2023/12/24 10:39:25;;;;;;;4.60;0.93;;;;;;;;;;5048917;28;41069;-74
2023/12/24 10:41:55;;;;;;;8.85;1.35;;;;;;;;;;5060596;28;42730;-73
2023/12/24 10:44:23;;;;;;;3.70;0.80;;;;;;;;;;5057271;28;41287;-75
2023/12/24 10:46:53;;;;;;;5.38;1.40;;;;;;;;;;5055741;28;42007;-74
2023/12/24 10:49:21;;;;;;;5.72;1.60;;;;;;;;;;5065319;28;41435;-72
2023/12/24 10:51:49;;;;;;;3.90;1.25;;;;;;;;;;5053536;28;41630;-73
2023/12/24 10:54:17;;;;;;;9.60;2.15;;;;;;;;;;5065086;28;41065;-72
2023/12/24 10:56:51;;;;;;;9.70;2.35;;;;;;;;;;5066354;28;41837;-72
2023/12/24 10:59:21;;;;;;;8.98;2.63;;;;;;;;;;5061323;28;42190;-72
2023/12/24 11:01:49;;;;;;;10.88;2.78;;;;;;;;;;5042880;28;40628;-74
2023/12/24 11:04:32;;;;;;;11.93;3.00;;;;;;;;;;5065611;28;42606;-73
2023/12/24 11:07:04;;;;;;;7.25;1.63;;;;;;;;;;5065139;28;42444;-73
2023/12/24 11:09:47;;;;;;;10.98;2.90;;;;;;;;;;5061072;28;42653;-74
2023/12/24 11:12:29;;;;;;;6.18;1.67;;;;;;;;;;5062888;28;41469;-73
2023/12/24 11:14:57;;;;;;;12.55;2.83;;;;;;;;;;5061635;28;41717;-73
2023/12/24 11:17:44;;;;;;;10.48;2.60;;;;;;;;;;5063759;28;42133;-73
2023/12/24 11:20:31;;;;;;;13.02;2.85;;;;;;;;;;5046162;28;41041;-73
2023/12/24 11:23:13;;;;;;;14.52;2.92;;;;;;;;;;5055224;28;41622;-74
2023/12/24 11:25:42;;;;;;;9.02;2.20;;;;;;;;;;5064036;28;41354;-74
2023/12/24 11:28:10;;;;;;;7.15;1.90;;;;;;;;;;5053380;28;42145;-73
2023/12/24 11:30:57;;;;;;;6.25;1.50;;;;;;;;;;5061246;28;42069;-73
2023/12/24 11:33:35;;;;;;;11.43;2.30;;;;;;;;;;5065898;28;41293;-75
2023/12/24 11:36:07;;;;;;;9.90;1.67;;;;;;;;;;5064712;28;41700;-74
2023/12/24 11:38:40;;;;;;;6.15;1.70;;;;;;;;;;5060108;28;42826;-75
2023/12/24 11:41:08;;;;;;;6.00;1.23;;;;;;;;;;5060602;28;41962;-72
2023/12/24 11:43:37;;;;;;;6.38;1.20;;;;;;;;;;5065101;28;42589;-76
2023/12/24 11:46:05;;;;;;;6.85;1.38;;;;;;;;;;5055264;28;42162;-74
2023/12/24 11:48:33;;;;;;;7.82;1.88;;;;;;;;;;5069227;28;41156;-74
2023/12/24 11:51:02;;;;;;;3.63;1.10;;;;;;;;;;5067605;28;41869;-73
2023/12/24 11:53:30;;;;;;;5.35;1.08;;;;;;;;;;5055236;28;42310;-72
2023/12/24 11:56:07;;;;;;;7.65;1.92;;;;;;;;;;5063362;28;41388;-72
2023/12/24 11:58:35;;;;;;;8.23;1.90;;;;;;;;;;5058122;28;42721;-75
2023/12/24 12:01:03;;;;;;;8.18;1.83;;;;;;;;;;5066731;28;40940;-69
2023/12/24 12:03:31;;;;;;;7.05;1.98;;;;;;;;;;5055995;28;39884;-69
2023/12/24 12:05:59;;;;;;;5.93;1.20;;;;;;;;;;5067707;28;41480;-71
2023/12/24 12:08:28;;;;;;;4.97;1.38;;;;;;;;;;5066386;28;40734;-72
2023/12/24 12:10:56;;;;;;;4.88;1.20;;;;;;;;;;5065547;28;43175;-72
2023/12/24 12:13:25;;;;;;;5.65;1.45;;;;;;;;;;5067225;28;41084;-71
2023/12/24 12:15:53;;;;;;;5.03;1.65;;;;;;;;;;5062582;28;41256;-71
2023/12/24 12:18:21;;;;;;;5.28;1.50;;;;;;;;;;5061195;28;41592;-70
2023/12/24 12:20:49;;;;;;;5.63;1.75;;;;;;;;;;5069248;28;41983;-71
2023/12/24 12:23:19;;;;;;;5.30;1.80;;;;;;;;;;5063580;28;42257;-72
2023/12/24 12:25:47;;;;;;;3.05;1.38;;;;;;;;;;5060576;28;41730;-73
2023/12/24 12:28:15;;;;;;;3.05;1.27;;;;;;;;;;5038651;28;39940;-72
2023/12/24 12:30:45;;;;;;;2.03;0.82;;;;;;;;;;5064041;28;42028;-73
2023/12/24 12:33:13;;;;;;;2.22;1.15;;;;;;;;;;5067946;28;41720;-71
2023/12/24 12:35:42;;;;;;;2.47;0.98;;;;;;;;;;5055782;28;41824;-73
2023/12/24 12:38:10;;;;;;;3.05;1.30;;;;;;;;;;5064801;28;41716;-72
2023/12/24 12:40:37;;;;;;;4.05;1.33;;;;;;;;;;5068618;28;41173;-72
2023/12/24 12:43:15;;;;;;;4.20;1.60;;;;;;;;;;5062929;28;41352;-71
2023/12/24 12:45:44;;;;;;;10.85;1.63;;;;;;;;;;5061695;28;41908;-72
2023/12/24 12:48:12;;;;;;;3.17;1.38;;;;;;;;;;5068138;28;42275;-73
2023/12/24 12:50:41;;;;;;;1.30;1.08;;;;;;;;;;5067578;28;41433;-76
2023/12/24 12:53:09;;;;;;;1.73;1.00;;;;;;;;;;5039881;28;40476;-73
2023/12/24 12:55:37;;;;;;;3.15;1.33;;;;;;;;;;5041811;28;41891;-72
2023/12/24 12:58:13;;;;;;;1.75;1.10;;;;;;;;;;5067292;28;42145;-73
2023/12/24 13:00:41;;;;;;;2.63;1.10;;;;;;;;;;5062479;28;40993;-73
2023/12/24 13:03:11;;;;;;;2.42;0.98;;;;;;;;;;5054968;28;42587;-72
2023/12/24 13:05:39;;;;;;;2.83;1.20;;;;;;;;;;5053673;28;41665;-73
2023/12/24 13:08:16;;;;;;;4.20;1.10;;;;;;;;;;5056694;28;41074;-72
2023/12/24 13:10:44;;;;;;;2.72;0.70;;;;;;;;;;5063942;28;40985;-74
2023/12/24 13:13:13;;;;;;;3.70;1.10;;;;;;;;;;5055264;28;41744;-72
2023/12/24 13:15:42;;;;;;;2.53;0.90;;;;;;;;;;5063172;28;41944;-74
2023/12/24 13:18:18;;;;;;;9.68;0.90;;;;;;;;;;5065070;28;42097;-73
2023/12/24 13:20:46;;;;;;;3.30;1.10;;;;;;;;;;5066910;28;41610;-73
2023/12/24 13:23:15;;;;;;;2.13;0.88;;;;;;;;;;5063218;28;41983;-73
2023/12/24 13:25:43;;;;;;;3.13;1.10;;;;;;;;;;5063734;28;42663;-74
2023/12/24 13:28:11;;;;;;;1.80;1.10;;;;;;;;;;5062863;28;41418;-74
2023/12/24 13:30:39;;;;;;;2.13;0.85;;;;;;;;;;5034367;28;40268;-74
2023/12/24 13:33:07;;;;;;;2.63;0.85;;;;;;;;;;5063784;28;42077;-74
2023/12/24 13:35:37;;;;;;;4.82;1.23;;;;;;;;;;5061224;28;41528;-74
2023/12/24 13:38:08;;;;;;;4.32;1.48;;;;;;;;;;5052761;28;42098;-74
2023/12/24 13:40:36;;;;;;;1.80;0.85;;;;;;;;;;5067598;28;40947;-74
2023/12/24 13:43:04;;;;;;;6.60;1.13;;;;;;;;;;5059056;28;41819;-73
2023/12/24 13:45:32;;;;;;;1.55;0.80;;;;;;;;;;5043311;28;40606;-73
2023/12/24 13:48:00;;;;;;;5.28;0.90;;;;;;;;;;5062380;28;40867;-73
2023/12/24 13:50:29;;;;;;;0.90;0.77;;;;;;;;;;5068074;28;41619;-73
2023/12/24 13:52:59;;;;;;;2.65;1.10;;;;;;;;;;5067023;28;42167;-73
2023/12/24 13:55:46;;;;;;;2.53;0.65;;;;;;;;;;5066590;28;41362;-72
2023/12/24 13:58:14;;;;;;;1.48;0.60;;;;;;;;;;5049593;28;40386;-74
2023/12/24 14:00:42;;;;;;;2.55;1.02;;;;;;;;;;5052220;28;42315;-72
2023/12/24 14:03:10;;;;;;;2.53;0.80;;;;;;;;;;5067834;28;42777;-73
2023/12/24 14:05:40;;;;;;;4.25;0.90;;;;;;;;;;5052935;28;42535;-72
2023/12/24 14:08:10;;;;;;;2.53;1.13;;;;;;;;;;5072783;28;41953;-74
2023/12/24 14:10:38;;;;;;;3.33;0.98;;;;;;;;;;5058211;28;40609;-75
2023/12/24 14:13:06;;;;;;;4.97;0.75;;;;;;;;;;5055674;28;42853;-73
2023/12/24 14:15:34;;;;;;;6.00;1.55;;;;;;;;;;5063015;28;41280;-74
2023/12/24 14:18:02;;;;;;;2.75;1.20;;;;;;;;;;5057289;28;41252;-76
2023/12/24 14:20:30;;;;;;;5.75;1.10;;;;;;;;;;5059879;28;33403;-73
2023/12/24 14:22:58;;;;;;;6.25;1.30;;;;;;;;;;5047210;28;41798;-79
2023/12/24 14:25:27;;;;;;;4.30;1.30;;;;;;;;;;5061025;28;43136;-73
2023/12/24 14:27:55;;;;;;;4.50;1.55;;;;;;;;;;5059986;28;40933;-74
2023/12/24 14:30:23;;;;;;;4.20;1.52;;;;;;;;;;5060365;28;42471;-74
2023/12/24 14:32:52;;;;;;;4.65;1.48;;;;;;;;;;5061153;28;41544;-73
2023/12/24 14:35:20;;;;;;;5.03;1.60;;;;;;;;;;5058726;28;41074;-76
2023/12/24 14:37:48;;;;;;;4.82;1.42;;;;;;;;;;5060871;28;40570;-76
2023/12/24 14:40:18;;;;;;;5.65;1.77;;;;;;;;;;5060245;28;42552;-75
2023/12/24 14:42:47;;;;;;;6.18;2.47;;;;;;;;;;5032498;28;41161;-79
2023/12/24 14:45:15;;;;;;;9.13;1.50;;;;;;;;;;5056873;28;41692;-73
2023/12/24 14:47:43;;;;;;;5.05;1.90;;;;;;;;;;5062337;28;40871;-77
2023/12/24 14:50:11;;;;;;;5.90;2.03;;;;;;;;;;5059720;28;41098;-76
2023/12/24 14:52:39;;;;;;;8.43;2.95;;;;;;;;;;5059211;28;42499;-81